createdAt,value
2023-02-27T00:00:15.113Z,102711.59
2023-02-27T00:05:37.049Z,102718.81
2023-02-27T00:10:58.793Z,102723.91
2023-02-27T00:16:20.659Z,102716.19
2023-02-27T00:21:44.688Z,102713.16
2023-02-27T00:27:06.474Z,102711.00
2023-02-27T00:32:29.527Z,102706.91
2023-02-27T00:37:51.301Z,102702.84
2023-02-27T00:43:13.012Z,102704.47
2023-02-27T00:48:34.688Z,102706.78
2023-02-27T00:53:56.741Z,102708.25
2023-02-27T00:59:18.563Z,102705.22
2023-02-27T01:04:40.591Z,102702.84
2023-02-27T01:10:02.317Z,102686.63
2023-02-27T01:15:24.005Z,102696.59
2023-02-27T01:20:45.705Z,102682.28
2023-02-27T01:26:08.194Z,102685.47
2023-02-27T01:31:30.098Z,102693.97
2023-02-27T01:36:51.912Z,102691.63
2023-02-27T01:42:28.424Z,102691.41
2023-02-27T01:47:56.365Z,102698.38
2023-02-27T01:53:20.363Z,102696.03
2023-02-27T01:58:43.528Z,102694.72
2023-02-27T02:04:11.413Z,102700.63
2023-02-27T02:09:36.438Z,102698.91
2023-02-27T02:14:58.303Z,102695.47
2023-02-27T02:20:43.109Z,102693.75
2023-02-27T02:26:25.012Z,102693.31
2023-02-27T02:32:08.054Z,102690.09
2023-02-27T02:37:41.530Z,102695.34
2023-02-27T02:43:12.570Z,102699.19
2023-02-27T02:48:53.124Z,102705.78
2023-02-27T02:54:43.946Z,102694.88
2023-02-27T03:00:30.238Z,102707.22
2023-02-27T03:06:11.900Z,102715.53
2023-02-27T03:11:39.462Z,102717.84
2023-02-27T03:17:08.060Z,102709.72
2023-02-27T03:22:34.726Z,102717.16
2023-02-27T03:28:06.180Z,102717.38
2023-02-27T03:33:36.396Z,102723.28
2023-02-27T03:39:11.762Z,102726.22
2023-02-27T03:44:41.530Z,102731.94
2023-02-27T03:50:03.543Z,102734.25
2023-02-27T03:55:39.128Z,102728.88
2023-02-27T04:01:00.942Z,102731.41
2023-02-27T04:06:42.934Z,102724.16
2023-02-27T04:12:27.023Z,102734.53
2023-02-27T04:18:29.849Z,102741.34
2023-02-27T04:24:17.413Z,102735.97
2023-02-27T04:29:51.180Z,102744.47
2023-02-27T04:35:20.920Z,102746.41
2023-02-27T04:40:52.887Z,102744.69
2023-02-27T04:46:17.466Z,102744.00
2023-02-27T04:52:10.929Z,102755.91
2023-02-27T04:57:38.818Z,102757.19
2023-02-27T05:03:11.163Z,102777.59
2023-02-27T05:09:09.290Z,102775.69
2023-02-27T05:14:31.046Z,102777.31
2023-02-27T05:19:53.018Z,102771.78
2023-02-27T05:25:48.493Z,102770.06
2023-02-27T05:31:18.606Z,102776.81
2023-02-27T05:36:57.465Z,102784.28
2023-02-27T05:42:28.880Z,102785.31
2023-02-27T05:48:01.056Z,102784.66
2023-02-27T05:53:28.596Z,102790.56
2023-02-27T05:59:17.681Z,102791.59
2023-02-27T06:04:40.557Z,102799.06
2023-02-27T06:10:02.580Z,102802.94
2023-02-27T06:15:24.459Z,102810.69
2023-02-27T06:20:47.359Z,102804.94
2023-02-27T06:26:13.926Z,102804.41
2023-02-27T06:31:35.794Z,102816.03
2023-02-27T06:36:57.848Z,102818.41
2023-02-27T06:42:19.617Z,102827.06
2023-02-27T06:47:42.489Z,102823.63
2023-02-27T06:53:04.512Z,102833.00
2023-02-27T06:58:26.331Z,102838.50
2023-02-27T07:03:48.231Z,102853.00
2023-02-27T07:09:10.190Z,102846.50
2023-02-27T07:14:32.739Z,102857.13
2023-02-27T07:19:54.800Z,102865.38
2023-02-27T07:25:16.678Z,102875.69
2023-02-27T07:30:39.175Z,102879.03
2023-02-27T07:36:01.143Z,102874.25
2023-02-27T07:41:30.259Z,102878.50
2023-02-27T07:46:52.696Z,102886.88
2023-02-27T07:52:14.639Z,102883.34
2023-02-27T07:57:36.438Z,102887.22
2023-02-27T08:02:58.173Z,102887.94
2023-02-27T08:08:19.959Z,102880.78
2023-02-27T08:13:59.438Z,102893.19
2023-02-27T08:19:22.081Z,102884.75
2023-02-27T08:24:43.883Z,102888.91
2023-02-27T08:30:07.735Z,102891.72
2023-02-27T08:35:29.923Z,102892.44
2023-02-27T08:40:55.694Z,102887.22
2023-02-27T08:46:17.504Z,102889.56
2023-02-27T08:51:39.392Z,102902.09
2023-02-27T08:57:01.117Z,102904.47
2023-02-27T09:02:26.975Z,102909.44
2023-02-27T09:07:49.196Z,102920.38
2023-02-27T09:13:10.930Z,102908.16
2023-02-27T09:18:32.759Z,102906.31
2023-02-27T09:23:55.165Z,102904.84
2023-02-27T09:29:17.373Z,102904.19
2023-02-27T09:34:39.048Z,102899.66
2023-02-27T09:40:01.186Z,102908.13
2023-02-27T09:45:26.299Z,102911.50
2023-02-27T09:50:49.860Z,102920.59
2023-02-27T09:56:22.518Z,102913.47
2023-02-27T10:01:52.692Z,102913.78
2023-02-27T10:07:23.286Z,102919.41
2023-02-27T10:13:15.038Z,102921.94
2023-02-27T10:19:02.546Z,102923.78
2023-02-27T10:24:37.294Z,102918.34
2023-02-27T10:30:28.302Z,102915.97
2023-02-27T10:35:55.186Z,102920.88
2023-02-27T10:41:19.898Z,102914.03
2023-02-27T10:46:42.080Z,102915.97
2023-02-27T10:52:14.375Z,102911.44
2023-02-27T10:57:42.460Z,102905.69
2023-02-27T11:03:05.129Z,102898.88
2023-02-27T11:08:32.728Z,102894.38
2023-02-27T11:13:57.262Z,102885.97
2023-02-27T11:19:40.216Z,102877.41
2023-02-27T11:25:19.995Z,102892.97
2023-02-27T11:30:43.794Z,102881.78
2023-02-27T11:36:06.676Z,102879.13
2023-02-27T11:41:33.824Z,102879.25
2023-02-27T11:47:16.074Z,102872.59
2023-02-27T11:53:04.427Z,102864.59
2023-02-27T11:58:30.890Z,102855.38
2023-02-27T12:04:02.934Z,102844.03
2023-02-27T12:09:54.074Z,102844.22
2023-02-27T12:15:26.649Z,102838.91
2023-02-27T12:21:26.073Z,102839.06
2023-02-27T12:26:51.066Z,102827.63
2023-02-27T12:32:32.013Z,102825.63
2023-02-27T12:37:54.234Z,102828.06
2023-02-27T12:43:21.582Z,102826.69
2023-02-27T12:49:12.511Z,102829.06
2023-02-27T12:55:05.320Z,102834.00
2023-02-27T13:00:33.122Z,102828.25
2023-02-27T13:06:01.899Z,102838.28
2023-02-27T13:11:59.217Z,102826.94
2023-02-27T13:17:29.675Z,102820.31
2023-02-27T13:23:06.345Z,102807.06
2023-02-27T13:28:29.758Z,102816.25
2023-02-27T13:34:06.691Z,102816.22
2023-02-27T13:39:49.699Z,102814.31
2023-02-27T13:45:50.593Z,102809.16
2023-02-27T13:51:37.613Z,102809.59
2023-02-27T13:56:59.257Z,102818.94
2023-02-27T14:02:56.447Z,102811.84
2023-02-27T14:08:23.403Z,102809.47
2023-02-27T14:13:51.239Z,102803.88
2023-02-27T14:19:15.815Z,102805.78
2023-02-27T14:24:59.957Z,102806.38
2023-02-27T14:30:41.024Z,102793.56
2023-02-27T14:36:08.057Z,102777.72
2023-02-27T14:41:51.649Z,102780.91
2023-02-27T14:47:24.319Z,102784.53
2023-02-27T14:52:46.171Z,102783.22
2023-02-27T14:58:07.834Z,102780.22
2023-02-27T15:03:40.390Z,102779.56
2023-02-27T15:09:02.890Z,102783.47
2023-02-27T15:14:32.013Z,102782.69
2023-02-27T15:19:56.599Z,102785.16
2023-02-27T15:25:38.624Z,102778.78
2023-02-27T15:31:00.617Z,102774.97
2023-02-27T15:36:29.445Z,102776.69
2023-02-27T15:41:56.832Z,102770.03
2023-02-27T15:47:39.306Z,102777.09
2023-02-27T15:53:21.297Z,102778.81
2023-02-27T15:58:50.865Z,102771.31
2023-02-27T16:04:22.544Z,102771.31
2023-02-27T16:09:48.027Z,102773.91
2023-02-27T16:15:39.029Z,102777.31
2023-02-27T16:21:33.898Z,102774.97
2023-02-27T16:26:55.885Z,102783.50
2023-02-27T16:32:39.118Z,102788.00
2023-02-27T16:38:02.496Z,102781.50
2023-02-27T16:43:24.251Z,102782.34
2023-02-27T16:49:04.539Z,102783.59
2023-02-27T16:54:32.322Z,102795.50
2023-02-27T16:59:54.337Z,102793.97
2023-02-27T17:05:16.522Z,102797.34
2023-02-27T17:10:38.498Z,102807.53
2023-02-27T17:16:00.733Z,102805.59
2023-02-27T17:21:22.463Z,102813.03
2023-02-27T17:26:44.620Z,102814.56
2023-02-27T17:32:06.789Z,102817.13
2023-02-27T17:37:28.799Z,102822.06
2023-02-27T17:42:50.614Z,102829.41
2023-02-27T17:48:12.958Z,102826.69
2023-02-27T17:53:35.813Z,102832.50
2023-02-27T17:58:57.896Z,102847.47
2023-02-27T18:04:19.560Z,102855.78
2023-02-27T18:09:41.674Z,102851.38
2023-02-27T18:15:04.525Z,102862.13
2023-02-27T18:20:26.261Z,102864.75
2023-02-27T18:25:54.431Z,102867.81
2023-02-27T18:31:27.816Z,102866.97
2023-02-27T18:36:49.759Z,102869.97
2023-02-27T18:42:11.563Z,102872.91
2023-02-27T18:47:33.274Z,102872.72
2023-02-27T18:52:56.334Z,102873.34
2023-02-27T18:58:18.099Z,102873.09
2023-02-27T19:03:39.810Z,102872.44
2023-02-27T19:09:03.733Z,102871.13
2023-02-27T19:14:26.138Z,102873.66
2023-02-27T19:19:48.119Z,102870.09
2023-02-27T19:25:10.304Z,102867.56
2023-02-27T19:30:32.216Z,102866.13
2023-02-27T19:35:54.012Z,102873.75
2023-02-27T19:41:17.129Z,102877.53
2023-02-27T19:46:41.172Z,102877.44
2023-02-27T19:52:03.567Z,102877.09
2023-02-27T19:57:25.311Z,102882.19
2023-02-27T20:02:47.964Z,102887.94
2023-02-27T20:08:09.661Z,102887.88
2023-02-27T20:13:31.516Z,102898.13
2023-02-27T20:18:53.832Z,102888.03
2023-02-27T20:24:16.634Z,102888.72
2023-02-27T20:29:38.453Z,102891.34
2023-02-27T20:35:00.188Z,102890.19
2023-02-27T20:40:21.963Z,102894.72
2023-02-27T20:45:43.819Z,102895.22
2023-02-27T20:51:11.251Z,102892.97
2023-02-27T20:56:38.535Z,102883.56
2023-02-27T21:02:00.297Z,102879.75
2023-02-27T21:07:22.694Z,102886.59
2023-02-27T21:12:45.481Z,102880.19
2023-02-27T21:18:07.330Z,102881.03
2023-02-27T21:23:29.090Z,102893.28
2023-02-27T21:28:56.628Z,102895.41
2023-02-27T21:34:27.437Z,102900.34
2023-02-27T21:39:52.594Z,102890.94
2023-02-27T21:45:14.542Z,102893.72
2023-02-27T21:50:36.791Z,102890.09
2023-02-27T21:56:07.339Z,102893.25
2023-02-27T22:01:30.908Z,102887.69
2023-02-27T22:06:52.805Z,102892.16
2023-02-27T22:12:16.143Z,102891.06
2023-02-27T22:17:38.063Z,102883.56
2023-02-27T22:23:02.003Z,102895.91
2023-02-27T22:28:23.784Z,102893.75
2023-02-27T22:33:48.054Z,102897.75
2023-02-27T22:39:11.002Z,102894.69
2023-02-27T22:44:32.742Z,102895.09
2023-02-27T22:49:54.586Z,102904.66
2023-02-27T22:55:16.364Z,102903.97
2023-02-27T23:00:38.175Z,102899.41
2023-02-27T23:06:00.239Z,102915.63
2023-02-27T23:11:22.053Z,102910.03
2023-02-27T23:16:46.979Z,102910.00
2023-02-27T23:22:09.008Z,102916.53
2023-02-27T23:27:31.113Z,102918.19
2023-02-27T23:32:53.034Z,102922.63
2023-02-27T23:38:14.797Z,102927.06
2023-02-27T23:43:36.720Z,102937.88
2023-02-27T23:48:59.461Z,102945.97
2023-02-27T23:54:21.150Z,102936.69
2023-02-27T23:59:43.175Z,102938.16
